createdAt,value
2023-03-03T00:01:12.507Z,19.80
2023-03-03T00:03:40.575Z,22.80
2023-03-03T00:06:11.232Z,23.17
2023-03-03T00:08:39.438Z,25.13
2023-03-03T00:11:11.018Z,23.53
2023-03-03T00:13:46.689Z,22.33
2023-03-03T00:16:23.239Z,22.37
2023-03-03T00:18:51.887Z,24.53
2023-03-03T00:21:30.279Z,27.23
2023-03-03T00:24:18.483Z,24.93
2023-03-03T00:26:48.806Z,24.23
2023-03-03T00:29:41.212Z,24.43
2023-03-03T00:32:21.375Z,23.17
2023-03-03T00:34:50.127Z,23.73
2023-03-03T00:37:25.185Z,26.83
2023-03-03T00:39:53.129Z,24.60
2023-03-03T00:42:21.260Z,23.93
2023-03-03T00:44:50.400Z,27.50
2023-03-03T00:47:32.040Z,28.13
2023-03-03T00:50:34.083Z,25.37
2023-03-03T00:53:04.609Z,24.80
2023-03-03T00:55:33.823Z,27.87
2023-03-03T00:58:01.862Z,29.27
2023-03-03T01:00:35.138Z,27.93
2023-03-03T01:03:08.016Z,29.60
2023-03-03T01:05:37.123Z,29.27
2023-03-03T01:08:05.898Z,30.80
2023-03-03T01:10:36.296Z,30.07
2023-03-03T01:13:10.086Z,34.70
2023-03-03T01:15:38.230Z,32.17
2023-03-03T01:18:07.941Z,30.30
2023-03-03T01:20:36.030Z,29.87
2023-03-03T01:23:04.051Z,33.33
2023-03-03T01:25:32.022Z,33.13
2023-03-03T01:28:00.261Z,30.20
2023-03-03T01:30:28.416Z,33.40
2023-03-03T01:32:56.507Z,28.70
2023-03-03T01:35:26.054Z,30.87
2023-03-03T01:37:57.139Z,34.40
2023-03-03T01:40:27.047Z,33.00
2023-03-03T01:42:55.069Z,32.07
2023-03-03T01:45:24.736Z,30.63
2023-03-03T01:48:00.907Z,35.40
2023-03-03T01:50:36.216Z,34.63
2023-03-03T01:53:06.520Z,34.77
2023-03-03T01:55:36.780Z,33.13
2023-03-03T01:58:08.497Z,35.93
2023-03-03T02:00:38.024Z,37.63
2023-03-03T02:03:06.432Z,39.00
2023-03-03T02:05:39.628Z,34.50
2023-03-03T02:08:09.121Z,35.27
2023-03-03T02:10:37.204Z,34.30
2023-03-03T02:13:05.208Z,35.07
2023-03-03T02:15:37.107Z,38.13
2023-03-03T02:18:07.363Z,36.40
2023-03-03T02:20:50.883Z,40.40
2023-03-03T02:23:23.327Z,37.50
2023-03-03T02:26:05.787Z,40.07
2023-03-03T02:28:36.269Z,42.17
2023-03-03T02:31:13.807Z,35.10
2023-03-03T02:33:43.539Z,39.60
2023-03-03T02:36:13.846Z,37.53
2023-03-03T02:38:46.442Z,39.40
2023-03-03T02:41:19.985Z,39.93
2023-03-03T02:43:53.432Z,42.33
2023-03-03T02:46:22.193Z,38.87
2023-03-03T02:48:52.705Z,40.00
2023-03-03T02:51:20.847Z,40.10
2023-03-03T02:53:48.882Z,43.83
2023-03-03T02:56:18.300Z,41.33
2023-03-03T02:58:46.273Z,39.50
2023-03-03T03:01:14.407Z,45.00
2023-03-03T03:03:43.761Z,45.10
2023-03-03T03:06:12.221Z,49.03
2023-03-03T03:08:41.048Z,46.63
2023-03-03T03:11:09.415Z,47.17
2023-03-03T03:13:40.430Z,44.57
2023-03-03T03:16:09.281Z,46.53
2023-03-03T03:18:37.274Z,54.33
2023-03-03T03:21:09.981Z,46.30
2023-03-03T03:23:41.416Z,47.83
2023-03-03T03:26:09.782Z,51.03
2023-03-03T03:28:38.092Z,48.13
2023-03-03T03:31:11.315Z,51.03
2023-03-03T03:33:39.390Z,51.50
2023-03-03T03:36:08.979Z,53.60
2023-03-03T03:38:38.207Z,51.10
2023-03-03T03:41:08.520Z,54.23
2023-03-03T03:43:40.084Z,55.83
2023-03-03T03:46:08.886Z,55.57
2023-03-03T03:48:38.405Z,53.17
2023-03-03T03:51:07.378Z,58.80
2023-03-03T03:53:37.936Z,54.03
2023-03-03T03:56:06.698Z,55.67
2023-03-03T03:58:35.098Z,56.63
2023-03-03T04:01:08.061Z,64.77
2023-03-03T04:03:45.986Z,59.37
2023-03-03T04:06:17.725Z,56.50
2023-03-03T04:08:50.040Z,56.20
2023-03-03T04:11:23.164Z,55.53
2023-03-03T04:13:51.173Z,62.10
2023-03-03T04:16:19.258Z,63.03
2023-03-03T04:18:49.113Z,61.60
2023-03-03T04:21:18.416Z,64.07
2023-03-03T04:23:53.300Z,70.97
2023-03-03T04:26:21.617Z,67.33
2023-03-03T04:28:50.480Z,70.83
2023-03-03T04:31:20.497Z,67.93
2023-03-03T04:33:51.030Z,66.83
2023-03-03T04:36:19.246Z,74.73
2023-03-03T04:38:47.544Z,72.90
2023-03-03T04:41:15.652Z,73.20
2023-03-03T04:43:44.392Z,76.10
2023-03-03T04:46:14.142Z,72.60
2023-03-03T04:48:42.346Z,73.40
2023-03-03T04:51:12.950Z,75.70
2023-03-03T04:53:41.000Z,80.00
2023-03-03T04:56:10.936Z,75.07
2023-03-03T04:58:38.863Z,82.53
2023-03-03T05:01:14.533Z,72.27
2023-03-03T05:03:43.488Z,74.10
2023-03-03T05:06:13.158Z,81.70
2023-03-03T05:08:43.171Z,81.83
2023-03-03T05:11:11.357Z,79.03
2023-03-03T05:13:39.385Z,78.33
2023-03-03T05:16:08.090Z,76.80
2023-03-03T05:18:36.451Z,78.77
2023-03-03T05:21:04.735Z,84.03
2023-03-03T05:23:34.159Z,78.30
2023-03-03T05:26:02.142Z,80.67
2023-03-03T05:28:30.180Z,76.50
2023-03-03T05:30:58.267Z,84.07
2023-03-03T05:33:26.435Z,86.13
2023-03-03T05:35:55.571Z,86.93
2023-03-03T05:38:23.831Z,76.53
2023-03-03T05:40:54.276Z,88.07
2023-03-03T05:43:22.331Z,80.77
2023-03-03T05:45:56.169Z,82.93
2023-03-03T05:48:27.247Z,83.43
2023-03-03T05:50:55.550Z,82.50
2023-03-03T05:53:23.569Z,87.50
2023-03-03T05:55:53.185Z,82.00
2023-03-03T05:58:21.614Z,85.73
2023-03-03T06:00:49.636Z,83.03
2023-03-03T06:03:18.065Z,82.93
2023-03-03T06:05:46.273Z,83.20
2023-03-03T06:08:17.387Z,72.90
2023-03-03T06:10:45.464Z,75.27
2023-03-03T06:13:17.160Z,76.27
2023-03-03T06:15:45.480Z,84.53
2023-03-03T06:18:16.334Z,71.30
2023-03-03T06:20:44.322Z,78.90
2023-03-03T06:23:12.447Z,75.17
2023-03-03T06:25:40.842Z,79.93
2023-03-03T06:28:08.825Z,75.93
2023-03-03T06:30:38.290Z,71.93
2023-03-03T06:33:06.459Z,79.43
2023-03-03T06:35:34.540Z,73.33
2023-03-03T06:38:02.594Z,69.93
2023-03-03T06:40:30.674Z,74.00
2023-03-03T06:42:58.667Z,68.90
2023-03-03T06:45:26.613Z,63.40
2023-03-03T06:47:56.012Z,71.40
2023-03-03T06:50:24.050Z,68.33
2023-03-03T06:53:00.285Z,67.50
2023-03-03T06:55:28.334Z,62.73
2023-03-03T06:57:56.384Z,65.53
2023-03-03T07:00:26.293Z,65.17
2023-03-03T07:02:59.886Z,54.27
2023-03-03T07:05:35.536Z,50.90
2023-03-03T07:08:10.710Z,51.93
2023-03-03T07:10:40.419Z,48.57
2023-03-03T07:13:19.049Z,57.03
2023-03-03T07:15:48.456Z,48.57
2023-03-03T07:18:43.543Z,48.17
2023-03-03T07:21:18.635Z,49.90
2023-03-03T07:23:49.374Z,50.60
2023-03-03T07:26:19.034Z,51.63
2023-03-03T07:28:57.293Z,48.70
2023-03-03T07:31:33.103Z,47.50
2023-03-03T07:34:06.361Z,53.53
2023-03-03T07:36:38.006Z,52.13
2023-03-03T07:39:27.228Z,52.33
2023-03-03T07:42:04.644Z,49.43
2023-03-03T07:44:36.932Z,47.57
2023-03-03T07:47:16.718Z,49.30
2023-03-03T07:49:46.219Z,49.07
2023-03-03T07:52:32.969Z,48.97
2023-03-03T07:55:06.274Z,46.70
2023-03-03T07:57:39.893Z,49.10
2023-03-03T08:00:58.767Z,46.40
2023-03-03T08:03:26.850Z,49.93
2023-03-03T08:05:56.299Z,47.03
2023-03-03T08:08:31.307Z,45.47
2023-03-03T08:11:02.520Z,44.73
2023-03-03T08:13:38.235Z,50.40
2023-03-03T08:16:26.711Z,43.27
2023-03-03T08:18:55.157Z,46.00
2023-03-03T08:21:26.262Z,46.20
2023-03-03T08:23:54.744Z,45.17
2023-03-03T08:26:24.000Z,50.27
2023-03-03T08:28:52.338Z,52.73
2023-03-03T08:31:39.878Z,51.00
2023-03-03T08:34:08.792Z,50.00
2023-03-03T08:36:38.306Z,46.90
2023-03-03T08:39:06.752Z,46.97
2023-03-03T08:41:34.803Z,50.00
2023-03-03T08:44:04.953Z,48.23
2023-03-03T08:46:32.990Z,47.53
2023-03-03T08:49:01.113Z,47.43
2023-03-03T08:51:30.214Z,42.53
2023-03-03T08:53:59.624Z,45.20
2023-03-03T08:56:27.599Z,50.47
2023-03-03T08:59:03.388Z,47.83
2023-03-03T09:01:32.270Z,48.33
2023-03-03T09:04:06.440Z,53.20
2023-03-03T09:06:34.454Z,47.93
2023-03-03T09:09:04.728Z,53.40
2023-03-03T09:11:33.117Z,47.40
2023-03-03T09:14:07.881Z,51.57
2023-03-03T09:16:39.641Z,47.00
2023-03-03T09:19:24.952Z,46.20
2023-03-03T09:21:54.898Z,50.20
2023-03-03T09:24:28.619Z,53.70
2023-03-03T09:26:58.635Z,50.67
2023-03-03T09:29:29.178Z,53.70
2023-03-03T09:32:02.403Z,42.80
2023-03-03T09:34:39.858Z,45.87
2023-03-03T09:37:21.884Z,44.27
2023-03-03T09:39:52.470Z,49.23
2023-03-03T09:42:52.754Z,46.80
2023-03-03T09:45:41.975Z,51.10
2023-03-03T09:48:29.080Z,52.87
2023-03-03T09:51:06.820Z,53.43
2023-03-03T09:53:43.751Z,53.47
2023-03-03T09:56:18.577Z,57.33
2023-03-03T09:58:56.222Z,50.83
2023-03-03T10:01:37.855Z,50.83
2023-03-03T10:04:25.293Z,49.53
2023-03-03T10:06:57.991Z,49.77
2023-03-03T10:09:40.959Z,50.10
2023-03-03T10:12:17.466Z,52.20
2023-03-03T10:15:19.085Z,47.33
2023-03-03T10:17:52.155Z,47.97
2023-03-03T10:20:49.718Z,48.53
2023-03-03T10:23:23.302Z,56.50
2023-03-03T10:25:58.361Z,48.23
2023-03-03T10:28:46.997Z,45.23
2023-03-03T10:31:28.244Z,44.97
2023-03-03T10:34:01.010Z,40.10
2023-03-03T10:36:50.128Z,35.20
2023-03-03T10:39:29.458Z,37.70
2023-03-03T10:42:12.064Z,36.70
2023-03-03T10:44:52.878Z,35.53
2023-03-03T10:47:32.825Z,36.73
2023-03-03T10:50:13.457Z,39.77
2023-03-03T10:52:46.060Z,41.87
2023-03-03T10:55:29.163Z,44.57
2023-03-03T10:58:15.593Z,41.77
2023-03-03T11:00:47.758Z,37.37
2023-03-03T11:03:41.120Z,41.73
2023-03-03T11:06:14.677Z,40.97
2023-03-03T11:08:45.949Z,40.53
2023-03-03T11:11:20.586Z,38.33
2023-03-03T11:13:52.500Z,40.67
2023-03-03T11:16:35.378Z,40.03
2023-03-03T11:19:11.426Z,46.87
2023-03-03T11:21:43.304Z,46.03
2023-03-03T11:24:21.022Z,49.33
2023-03-03T11:27:06.859Z,46.60
2023-03-03T11:29:48.876Z,48.37
2023-03-03T11:32:28.374Z,51.43
2023-03-03T11:35:03.104Z,50.27
2023-03-03T11:37:38.111Z,50.23
2023-03-03T11:40:14.232Z,48.27
2023-03-03T11:42:52.005Z,51.23
2023-03-03T11:45:22.053Z,47.17
2023-03-03T11:47:57.375Z,47.43
2023-03-03T11:50:29.113Z,45.00
2023-03-03T11:53:22.436Z,46.87
2023-03-03T11:55:56.313Z,39.23
2023-03-03T11:58:26.557Z,46.63
2023-03-03T12:00:58.897Z,43.17
2023-03-03T12:03:31.637Z,43.20
2023-03-03T12:06:13.641Z,45.73
2023-03-03T12:08:54.538Z,47.63
2023-03-03T12:11:26.182Z,47.67
2023-03-03T12:13:58.827Z,45.07
2023-03-03T12:16:39.276Z,45.23
2023-03-03T12:19:42.646Z,46.77
2023-03-03T12:22:23.108Z,43.57
2023-03-03T12:25:14.144Z,49.03
2023-03-03T12:27:46.844Z,47.63
2023-03-03T12:30:25.133Z,42.97
2023-03-03T12:33:05.144Z,47.60
2023-03-03T12:35:38.033Z,47.93
2023-03-03T12:38:12.449Z,44.30
2023-03-03T12:40:43.571Z,46.43
2023-03-03T12:43:22.630Z,43.10
2023-03-03T12:45:57.497Z,45.27
2023-03-03T12:48:35.918Z,46.17
2023-03-03T12:51:13.812Z,44.63
2023-03-03T12:53:58.910Z,44.87
2023-03-03T12:56:32.796Z,45.07
2023-03-03T12:59:02.532Z,44.80
2023-03-03T13:01:38.541Z,43.57
2023-03-03T13:04:10.093Z,43.73
2023-03-03T13:06:41.367Z,42.87
2023-03-03T13:09:23.865Z,41.53
2023-03-03T13:12:22.024Z,44.47
2023-03-03T13:14:53.516Z,42.57
2023-03-03T13:17:27.795Z,46.47
2023-03-03T13:20:03.852Z,49.57
2023-03-03T13:22:47.291Z,47.47
2023-03-03T13:25:42.032Z,44.07
2023-03-03T13:28:15.495Z,45.00
2023-03-03T13:30:48.872Z,44.73
2023-03-03T13:33:21.038Z,41.23
2023-03-03T13:35:51.917Z,43.77
2023-03-03T13:38:22.832Z,43.97
2023-03-03T13:40:56.511Z,40.13
2023-03-03T13:43:28.153Z,35.60
2023-03-03T13:46:02.378Z,46.27
2023-03-03T13:48:39.257Z,42.60
2023-03-03T13:51:16.879Z,45.40
2023-03-03T13:53:53.901Z,46.37
2023-03-03T13:56:37.676Z,44.13
2023-03-03T13:59:15.447Z,42.80
2023-03-03T14:01:51.363Z,38.57
2023-03-03T14:04:33.056Z,37.73
2023-03-03T14:07:05.147Z,39.93
2023-03-03T14:09:51.218Z,40.43
2023-03-03T14:12:50.488Z,44.77
2023-03-03T14:15:26.234Z,46.37
2023-03-03T14:18:26.961Z,39.57
2023-03-03T14:20:57.349Z,41.40
2023-03-03T14:23:37.448Z,44.90
2023-03-03T14:26:10.213Z,44.77
2023-03-03T14:28:48.237Z,47.53
2023-03-03T14:31:19.403Z,47.20
2023-03-03T14:33:59.073Z,44.77
2023-03-03T14:36:33.165Z,50.77
2023-03-03T14:39:01.167Z,42.70
2023-03-03T14:41:43.808Z,50.23
2023-03-03T14:44:30.383Z,49.97
2023-03-03T14:47:08.529Z,49.23
2023-03-03T14:49:38.527Z,46.70
2023-03-03T14:52:22.268Z,46.03
2023-03-03T14:54:51.773Z,44.00
2023-03-03T14:57:21.079Z,47.27
2023-03-03T15:00:02.942Z,46.23
2023-03-03T15:02:38.398Z,50.50
2023-03-03T15:05:22.002Z,44.23
2023-03-03T15:07:54.979Z,45.87
2023-03-03T15:10:32.275Z,50.73
2023-03-03T15:13:00.527Z,49.70
2023-03-03T15:15:30.921Z,43.90
2023-03-03T15:18:04.162Z,49.67
2023-03-03T15:20:40.322Z,51.17
2023-03-03T15:23:15.878Z,53.13
2023-03-03T15:25:53.794Z,49.33
2023-03-03T15:28:59.374Z,51.37
2023-03-03T15:31:38.278Z,51.80
2023-03-03T15:34:23.098Z,48.00
2023-03-03T15:36:59.318Z,53.00
2023-03-03T15:39:33.043Z,54.30
2023-03-03T15:42:05.948Z,52.43
2023-03-03T15:44:42.606Z,58.23
2023-03-03T15:47:39.707Z,59.27
2023-03-03T15:50:25.690Z,61.30
2023-03-03T15:53:00.986Z,60.03
2023-03-03T15:55:39.223Z,62.57
2023-03-03T15:58:22.363Z,57.73
2023-03-03T16:01:00.457Z,63.33
2023-03-03T16:03:35.181Z,59.80
2023-03-03T16:06:07.289Z,68.07
2023-03-03T16:08:45.943Z,64.20
2023-03-03T16:11:17.448Z,63.40
2023-03-03T16:13:59.416Z,68.77
2023-03-03T16:16:37.926Z,74.53
2023-03-03T16:19:19.805Z,66.80
2023-03-03T16:22:11.082Z,73.47
2023-03-03T16:24:46.552Z,75.10
2023-03-03T16:27:19.093Z,75.10
2023-03-03T16:29:59.713Z,79.23
2023-03-03T16:32:32.646Z,87.73
2023-03-03T16:35:24.120Z,79.97
2023-03-03T16:37:59.782Z,83.27
2023-03-03T16:40:31.621Z,80.03
2023-03-03T16:43:09.315Z,91.40
2023-03-03T16:45:39.545Z,88.13
2023-03-03T16:48:23.141Z,76.97
2023-03-03T16:51:17.166Z,89.40
2023-03-03T16:53:53.531Z,82.23
2023-03-03T16:56:28.375Z,87.80
2023-03-03T16:59:37.922Z,81.27
2023-03-03T17:02:20.379Z,82.63
2023-03-03T17:04:50.089Z,90.73
2023-03-03T17:07:35.522Z,81.00
2023-03-03T17:10:09.646Z,86.37
2023-03-03T17:12:48.671Z,85.67
2023-03-03T17:15:40.042Z,84.80
2023-03-03T17:18:14.024Z,83.83
2023-03-03T17:20:48.440Z,89.87
2023-03-03T17:23:36.346Z,88.77
2023-03-03T17:26:16.668Z,91.23
2023-03-03T17:28:52.107Z,85.97
2023-03-03T17:31:24.905Z,97.37
2023-03-03T17:34:03.740Z,95.77
2023-03-03T17:36:39.231Z,91.50
2023-03-03T17:39:33.273Z,90.67
2023-03-03T17:42:06.032Z,99.93
2023-03-03T17:44:41.921Z,95.50
2023-03-03T17:47:12.546Z,91.50
2023-03-03T17:50:12.942Z,94.03
2023-03-03T17:52:54.297Z,89.10
2023-03-03T17:55:46.355Z,87.43
2023-03-03T17:58:32.958Z,92.67
2023-03-03T18:01:08.103Z,91.00
2023-03-03T18:04:02.833Z,94.00
2023-03-03T18:07:01.414Z,95.80
2023-03-03T18:09:43.594Z,97.83
2023-03-03T18:12:17.330Z,91.20
2023-03-03T18:15:10.718Z,98.23
2023-03-03T18:17:47.690Z,94.17
2023-03-03T18:20:28.213Z,107.33
2023-03-03T18:22:56.433Z,109.77
2023-03-03T18:25:26.169Z,108.10
2023-03-03T18:28:17.084Z,113.17
2023-03-03T18:31:04.933Z,117.00
2023-03-03T18:33:44.251Z,114.50
2023-03-03T18:36:17.034Z,114.90
2023-03-03T18:38:48.037Z,115.03
2023-03-03T18:41:24.085Z,110.00
2023-03-03T18:44:04.613Z,111.13
2023-03-03T18:46:59.915Z,120.20
2023-03-03T18:49:53.973Z,121.57
2023-03-03T18:52:26.737Z,115.57
2023-03-03T18:55:29.833Z,118.70
2023-03-03T18:58:29.682Z,120.10
2023-03-03T19:01:01.293Z,124.20
2023-03-03T19:03:34.962Z,130.43
2023-03-03T19:06:03.639Z,127.50
2023-03-03T19:08:45.620Z,129.40
2023-03-03T19:11:33.352Z,132.77
2023-03-03T19:14:20.846Z,133.63
2023-03-03T19:16:52.819Z,131.90
2023-03-03T19:19:22.205Z,125.03
2023-03-03T19:21:53.473Z,134.17
2023-03-03T19:24:31.536Z,129.93
2023-03-03T19:27:05.997Z,131.27
2023-03-03T19:30:00.377Z,136.27
2023-03-03T19:32:39.006Z,131.53
2023-03-03T19:35:18.781Z,132.17
2023-03-03T19:37:53.173Z,127.37
2023-03-03T19:40:26.531Z,128.37
2023-03-03T19:43:01.698Z,127.40
2023-03-03T19:45:50.798Z,139.63
2023-03-03T19:48:25.000Z,134.90
2023-03-03T19:50:56.633Z,130.47
2023-03-03T19:53:32.739Z,127.47
2023-03-03T19:56:11.395Z,132.90
2023-03-03T19:58:47.677Z,129.33
2023-03-03T20:01:19.412Z,129.30
2023-03-03T20:04:07.450Z,124.63
2023-03-03T20:06:45.389Z,134.23
2023-03-03T20:09:32.036Z,129.23
2023-03-03T20:12:14.285Z,137.83
2023-03-03T20:14:46.111Z,133.07
2023-03-03T20:17:42.110Z,131.00
2023-03-03T20:20:25.722Z,139.33
2023-03-03T20:22:58.652Z,132.80
2023-03-03T20:25:35.620Z,125.73
2023-03-03T20:28:07.805Z,137.33
2023-03-03T20:30:55.850Z,142.87
2023-03-03T20:33:39.080Z,140.67
2023-03-03T20:36:14.674Z,133.93
2023-03-03T20:38:51.334Z,133.03
2023-03-03T20:41:27.059Z,141.40
2023-03-03T20:44:04.505Z,143.70
2023-03-03T20:46:56.656Z,140.53
2023-03-03T20:49:46.814Z,139.83
2023-03-03T20:52:21.317Z,132.00
2023-03-03T20:54:56.314Z,139.73
2023-03-03T20:57:34.077Z,136.90
2023-03-03T21:00:05.353Z,145.07
2023-03-03T21:02:39.296Z,136.73
2023-03-03T21:05:15.359Z,140.63
2023-03-03T21:07:55.038Z,134.33
2023-03-03T21:10:25.361Z,130.23
2023-03-03T21:12:54.491Z,138.20
2023-03-03T21:15:28.885Z,134.83
2023-03-03T21:17:58.186Z,137.87
2023-03-03T21:20:29.543Z,137.73
2023-03-03T21:23:00.322Z,135.43
2023-03-03T21:25:49.372Z,127.10
2023-03-03T21:28:19.961Z,134.60
2023-03-03T21:31:01.797Z,149.37
2023-03-03T21:33:48.368Z,128.27
2023-03-03T21:36:18.174Z,130.27
2023-03-03T21:38:48.419Z,133.30
2023-03-03T21:41:20.351Z,135.70
2023-03-03T21:43:50.468Z,141.43
2023-03-03T21:46:19.921Z,132.90
2023-03-03T21:48:48.512Z,138.47
2023-03-03T21:51:17.287Z,131.10
2023-03-03T21:53:52.953Z,122.80
2023-03-03T21:56:21.315Z,130.80
2023-03-03T21:58:49.642Z,129.73
2023-03-03T22:01:17.850Z,126.33
2023-03-03T22:03:48.797Z,123.63
2023-03-03T22:06:17.056Z,119.50
2023-03-03T22:08:45.943Z,129.13
2023-03-03T22:11:15.703Z,127.10
2023-03-03T22:13:43.925Z,120.80
2023-03-03T22:16:13.268Z,131.50
2023-03-03T22:18:41.922Z,131.50
2023-03-03T22:21:10.216Z,128.43
2023-03-03T22:23:38.416Z,131.53
2023-03-03T22:26:07.139Z,124.30
2023-03-03T22:28:36.852Z,120.60
2023-03-03T22:31:05.145Z,126.97
2023-03-03T22:33:33.182Z,118.20
2023-03-03T22:36:01.267Z,116.47
2023-03-03T22:38:29.427Z,121.43
2023-03-03T22:40:57.503Z,123.03
2023-03-03T22:43:27.478Z,119.60
2023-03-03T22:45:57.103Z,124.67
2023-03-03T22:48:25.604Z,122.13
2023-03-03T22:50:54.152Z,123.37
2023-03-03T22:53:22.495Z,119.30
2023-03-03T22:55:50.713Z,124.17
2023-03-03T22:58:20.021Z,116.83
2023-03-03T23:00:48.859Z,119.60
2023-03-03T23:03:18.462Z,114.17
2023-03-03T23:05:46.616Z,119.03
2023-03-03T23:08:18.672Z,116.53
2023-03-03T23:10:49.652Z,114.33
2023-03-03T23:13:17.899Z,113.73
2023-03-03T23:15:46.085Z,110.13
2023-03-03T23:18:14.254Z,106.20
2023-03-03T23:20:46.082Z,106.87
2023-03-03T23:23:16.411Z,100.13
2023-03-03T23:25:44.579Z,100.27
2023-03-03T23:28:15.541Z,106.50
2023-03-03T23:30:43.857Z,103.60
2023-03-03T23:33:11.802Z,105.23
2023-03-03T23:35:42.429Z,98.53
2023-03-03T23:38:15.414Z,90.57
2023-03-03T23:40:43.813Z,97.87
2023-03-03T23:43:11.759Z,99.03
2023-03-03T23:45:39.791Z,97.53
2023-03-03T23:48:08.053Z,99.70
2023-03-03T23:50:37.373Z,99.33
2023-03-03T23:53:08.939Z,96.83
2023-03-03T23:55:38.375Z,92.07
2023-03-03T23:58:09.408Z,100.57
